createdAt,value
2022-10-31T00:01:37.314Z,24.80
2022-10-31T00:04:06.542Z,14.67
2022-10-31T00:06:33.469Z,12.23
2022-10-31T00:09:05.149Z,13.10
2022-10-31T00:11:32.301Z,17.10
2022-10-31T00:14:00.536Z,20.40
2022-10-31T00:16:29.741Z,19.50
2022-10-31T00:19:06.990Z,15.17
2022-10-31T00:21:34.910Z,16.60
2022-10-31T00:24:03.358Z,28.40
2022-10-31T00:26:32.179Z,16.87
2022-10-31T00:29:00.885Z,16.77
2022-10-31T00:31:28.089Z,21.10
2022-10-31T00:33:54.982Z,16.30
2022-10-31T00:36:21.987Z,21.00
2022-10-31T00:38:49.542Z,16.97
2022-10-31T00:41:18.910Z,16.87
2022-10-31T00:43:46.045Z,17.43
2022-10-31T00:46:14.594Z,15.00
2022-10-31T00:48:42.497Z,18.70
2022-10-31T00:51:09.846Z,15.70
2022-10-31T00:53:36.745Z,20.07
2022-10-31T00:56:04.730Z,16.13
2022-10-31T00:58:31.641Z,15.20
2022-10-31T01:00:58.683Z,21.03
2022-10-31T01:03:31.674Z,25.50
2022-10-31T01:06:06.559Z,15.53
2022-10-31T01:08:34.942Z,16.87
2022-10-31T01:11:22.615Z,14.87
2022-10-31T01:13:54.447Z,12.63
2022-10-31T01:16:27.749Z,15.57
2022-10-31T01:18:54.751Z,17.50
2022-10-31T01:21:27.954Z,18.43
2022-10-31T01:23:57.098Z,20.83
2022-10-31T01:26:32.365Z,14.20
2022-10-31T01:29:07.750Z,19.97
2022-10-31T01:31:40.651Z,13.80
2022-10-31T01:34:07.914Z,12.53
2022-10-31T01:36:38.949Z,13.17
2022-10-31T01:39:14.919Z,10.03
2022-10-31T01:41:47.079Z,16.57
2022-10-31T01:44:16.928Z,11.83
2022-10-31T01:47:00.871Z,11.13
2022-10-31T01:49:46.840Z,9.63
2022-10-31T01:52:33.184Z,11.60
2022-10-31T01:55:08.273Z,12.30
2022-10-31T01:57:40.813Z,12.20
2022-10-31T02:00:12.372Z,12.93
2022-10-31T02:02:39.952Z,10.13
2022-10-31T02:05:16.599Z,16.73
2022-10-31T02:08:21.265Z,12.90
2022-10-31T02:10:48.600Z,8.70
2022-10-31T02:13:17.468Z,11.67
2022-10-31T02:15:49.360Z,15.23
2022-10-31T02:18:18.318Z,14.20
2022-10-31T02:21:22.533Z,12.20
2022-10-31T02:24:41.466Z,14.80
2022-10-31T02:28:10.210Z,10.53
2022-10-31T02:31:02.933Z,12.07
2022-10-31T02:33:58.569Z,9.60
2022-10-31T02:36:59.808Z,10.93
2022-10-31T02:39:41.912Z,10.37
2022-10-31T02:42:34.862Z,13.80
2022-10-31T02:45:36.212Z,10.67
2022-10-31T02:48:19.085Z,9.80
2022-10-31T02:50:58.776Z,11.20
2022-10-31T02:53:25.828Z,10.87
2022-10-31T02:56:05.163Z,8.60
2022-10-31T02:58:44.881Z,8.63
2022-10-31T03:02:02.442Z,9.13
2022-10-31T03:05:09.106Z,12.67
2022-10-31T03:08:30.832Z,9.80
2022-10-31T03:11:07.436Z,9.27
2022-10-31T03:14:02.361Z,8.93
2022-10-31T03:16:56.631Z,6.83
2022-10-31T03:19:56.273Z,9.03
2022-10-31T03:22:30.518Z,7.57
2022-10-31T03:25:00.802Z,6.77
2022-10-31T03:27:36.953Z,9.60
2022-10-31T03:30:08.688Z,7.20
2022-10-31T03:32:55.231Z,7.70
2022-10-31T03:35:28.385Z,7.70
2022-10-31T03:38:04.091Z,27.47
2022-10-31T03:40:41.857Z,26.07
2022-10-31T03:43:28.140Z,44.33
2022-10-31T03:45:56.046Z,39.00
2022-10-31T03:48:24.474Z,8.17
2022-10-31T03:51:33.359Z,6.27
2022-10-31T03:54:15.210Z,6.40
2022-10-31T03:57:26.189Z,6.63
2022-10-31T04:00:06.263Z,6.20
2022-10-31T04:02:41.629Z,6.93
2022-10-31T04:05:11.870Z,6.80
2022-10-31T04:07:48.134Z,6.63
2022-10-31T04:10:17.878Z,7.47
2022-10-31T04:12:59.455Z,6.40
2022-10-31T04:15:31.972Z,5.83
2022-10-31T04:18:04.407Z,6.50
2022-10-31T04:20:41.875Z,16.63
2022-10-31T04:23:25.894Z,9.07
2022-10-31T04:25:53.152Z,6.63
2022-10-31T04:28:20.415Z,7.70
2022-10-31T04:30:47.323Z,6.03
2022-10-31T04:33:14.172Z,6.60
2022-10-31T04:35:42.220Z,5.80
2022-10-31T04:38:09.087Z,6.60
2022-10-31T04:40:36.011Z,5.70
2022-10-31T04:43:03.237Z,8.83
2022-10-31T04:45:30.471Z,5.63
2022-10-31T04:47:57.704Z,5.90
2022-10-31T04:50:24.875Z,6.03
2022-10-31T04:52:51.764Z,6.70
2022-10-31T04:55:18.619Z,7.07
2022-10-31T04:57:50.005Z,6.00
2022-10-31T05:00:22.111Z,6.27
2022-10-31T05:02:59.167Z,6.20
2022-10-31T05:05:32.153Z,7.20
2022-10-31T05:07:59.191Z,8.73
2022-10-31T05:10:30.861Z,5.70
2022-10-31T05:13:02.748Z,6.37
2022-10-31T05:15:31.192Z,5.90
2022-10-31T05:17:58.834Z,6.93
2022-10-31T05:20:30.624Z,6.67
2022-10-31T05:22:59.619Z,6.20
2022-10-31T05:25:30.403Z,7.27
2022-10-31T05:27:58.347Z,5.90
2022-10-31T05:30:35.880Z,6.27
2022-10-31T05:33:03.186Z,6.70
2022-10-31T05:35:33.529Z,5.90
2022-10-31T05:38:01.534Z,11.90
2022-10-31T05:40:29.202Z,6.60
2022-10-31T05:42:59.501Z,7.30
2022-10-31T05:45:26.882Z,13.50
2022-10-31T05:48:00.616Z,6.93
2022-10-31T05:50:31.444Z,7.53
2022-10-31T05:53:05.833Z,7.70
2022-10-31T05:55:33.156Z,7.80
2022-10-31T05:58:00.382Z,7.03
2022-10-31T06:00:29.294Z,8.40
2022-10-31T06:03:06.666Z,8.73
2022-10-31T06:05:33.758Z,10.60
2022-10-31T06:08:01.650Z,36.47
2022-10-31T06:10:29.528Z,19.13
2022-10-31T06:12:56.555Z,13.67
2022-10-31T06:15:24.764Z,11.47
2022-10-31T06:18:06.843Z,13.70
2022-10-31T06:20:35.181Z,9.73
2022-10-31T06:23:03.925Z,9.10
2022-10-31T06:25:31.380Z,8.90
2022-10-31T06:27:58.242Z,7.77
2022-10-31T06:30:25.657Z,9.90
2022-10-31T06:32:52.759Z,9.63
2022-10-31T06:35:20.132Z,8.17
2022-10-31T06:37:54.743Z,10.60
2022-10-31T06:40:22.463Z,7.87
2022-10-31T06:43:01.408Z,8.40
2022-10-31T06:45:29.106Z,23.70
2022-10-31T06:48:16.214Z,8.50
2022-10-31T06:50:44.048Z,13.83
2022-10-31T06:53:11.786Z,8.90
2022-10-31T06:55:38.828Z,11.13
2022-10-31T06:58:06.167Z,10.70
2022-10-31T07:00:33.865Z,10.67
2022-10-31T07:03:10.510Z,10.53
2022-10-31T07:05:37.382Z,10.20
2022-10-31T07:08:10.289Z,14.10
2022-10-31T07:10:40.822Z,13.70
2022-10-31T07:13:15.169Z,10.50
2022-10-31T07:15:44.406Z,11.03
2022-10-31T07:18:13.520Z,16.97
2022-10-31T07:20:40.517Z,12.93
2022-10-31T07:23:09.862Z,16.77
2022-10-31T07:25:36.743Z,12.77
2022-10-31T07:28:04.132Z,16.43
2022-10-31T07:30:31.131Z,19.00
2022-10-31T07:32:58.530Z,14.70
2022-10-31T07:35:29.570Z,15.13
2022-10-31T07:37:58.154Z,16.13
2022-10-31T07:40:26.362Z,15.00
2022-10-31T07:42:54.740Z,11.03
2022-10-31T07:45:22.247Z,15.00
2022-10-31T07:47:53.923Z,12.50
2022-10-31T07:50:30.639Z,8.63
2022-10-31T07:53:05.642Z,10.67
2022-10-31T07:55:33.851Z,9.43
2022-10-31T07:58:04.695Z,8.67
2022-10-31T08:00:35.230Z,9.47
2022-10-31T08:03:16.155Z,9.03
2022-10-31T08:05:45.709Z,8.73
2022-10-31T08:08:14.555Z,8.43
2022-10-31T08:10:42.199Z,7.40
2022-10-31T08:13:14.966Z,13.40
2022-10-31T08:15:43.017Z,9.27
2022-10-31T08:18:15.699Z,10.50
2022-10-31T08:20:44.848Z,17.87
2022-10-31T08:23:13.596Z,8.00
2022-10-31T08:25:41.195Z,8.70
2022-10-31T08:28:12.262Z,9.87
2022-10-31T08:30:40.968Z,13.03
2022-10-31T08:33:17.564Z,7.80
2022-10-31T08:35:45.728Z,9.90
2022-10-31T08:38:13.968Z,13.40
2022-10-31T08:40:41.428Z,6.13
2022-10-31T08:43:19.864Z,10.17
2022-10-31T08:45:50.627Z,11.03
2022-10-31T08:48:18.719Z,10.67
2022-10-31T08:50:47.085Z,8.27
2022-10-31T08:53:18.356Z,7.57
2022-10-31T08:55:47.546Z,8.23
2022-10-31T08:58:20.548Z,10.47
2022-10-31T09:03:40.208Z,10.70
2022-10-31T09:06:09.660Z,11.17
2022-10-31T09:08:38.124Z,12.47
2022-10-31T09:11:07.399Z,15.37
2022-10-31T09:13:37.552Z,13.50
2022-10-31T09:16:08.393Z,9.77
2022-10-31T09:18:35.380Z,6.87
2022-10-31T09:21:02.714Z,6.70
2022-10-31T09:23:29.945Z,9.87
2022-10-31T09:26:01.657Z,5.40
2022-10-31T09:28:28.580Z,8.60
2022-10-31T09:30:55.723Z,5.97
2022-10-31T09:33:23.049Z,8.77
2022-10-31T09:35:50.145Z,5.70
2022-10-31T09:38:22.163Z,5.93
2022-10-31T09:41:04.733Z,12.73
2022-10-31T09:44:15.121Z,6.03
2022-10-31T09:47:10.128Z,6.83
2022-10-31T09:50:07.697Z,13.47
2022-10-31T09:52:41.623Z,6.73
2022-10-31T09:55:25.725Z,12.73
2022-10-31T09:57:54.103Z,10.60
2022-10-31T10:00:23.335Z,11.07
2022-10-31T10:03:17.570Z,6.93
2022-10-31T10:05:58.171Z,8.87
2022-10-31T10:08:34.083Z,5.97
2022-10-31T10:11:36.786Z,10.50
2022-10-31T10:14:46.630Z,6.53
2022-10-31T10:18:04.834Z,7.50
2022-10-31T10:21:26.326Z,7.97
2022-10-31T10:24:16.614Z,6.50
2022-10-31T10:27:28.226Z,6.27
2022-10-31T10:30:21.573Z,6.90
2022-10-31T10:32:55.741Z,7.47
2022-10-31T10:35:35.822Z,6.63
2022-10-31T10:38:44.006Z,6.13
2022-10-31T10:41:25.211Z,3.93
2022-10-31T10:43:55.087Z,6.97
2022-10-31T10:47:18.819Z,10.00
2022-10-31T10:49:53.538Z,12.23
2022-10-31T10:53:00.831Z,10.30
2022-10-31T10:55:57.799Z,6.23
2022-10-31T10:58:24.810Z,5.90
2022-10-31T11:00:56.260Z,7.63
2022-10-31T11:03:23.267Z,5.37
2022-10-31T11:06:02.664Z,3.77
2022-10-31T11:08:37.270Z,7.30
2022-10-31T11:11:31.803Z,8.50
2022-10-31T11:14:16.784Z,6.53
2022-10-31T11:16:52.271Z,4.73
2022-10-31T11:19:28.267Z,5.60
2022-10-31T11:22:09.232Z,5.17
2022-10-31T11:24:42.823Z,5.73
2022-10-31T11:27:25.934Z,5.77
2022-10-31T11:29:56.898Z,4.00
2022-10-31T11:32:30.632Z,6.77
2022-10-31T11:35:10.685Z,5.97
2022-10-31T11:37:46.021Z,10.60
2022-10-31T11:40:28.313Z,9.37
2022-10-31T11:43:00.347Z,4.17
2022-10-31T11:45:34.658Z,8.73
2022-10-31T11:48:14.861Z,6.60
2022-10-31T11:50:49.733Z,7.43
2022-10-31T11:53:25.558Z,7.90
2022-10-31T11:56:21.212Z,10.80
2022-10-31T11:59:18.580Z,8.30
2022-10-31T12:01:52.614Z,5.00
2022-10-31T12:04:38.604Z,4.10
2022-10-31T12:07:05.639Z,12.63
2022-10-31T12:09:37.802Z,5.47
2022-10-31T12:13:04.532Z,7.20
2022-10-31T12:15:38.908Z,3.90
2022-10-31T12:18:44.688Z,4.77
2022-10-31T12:21:58.408Z,4.10
2022-10-31T12:25:13.537Z,4.70
2022-10-31T12:28:24.696Z,9.50
2022-10-31T12:31:28.372Z,2.70
2022-10-31T12:34:51.392Z,13.87
2022-10-31T12:37:55.481Z,3.67
2022-10-31T12:40:53.509Z,7.80
2022-10-31T12:44:09.253Z,7.63
2022-10-31T12:46:55.346Z,4.47
2022-10-31T12:50:00.072Z,5.20
2022-10-31T12:53:12.092Z,5.23
2022-10-31T12:56:05.725Z,12.13
2022-10-31T12:58:57.623Z,3.67
2022-10-31T13:01:38.223Z,4.47
2022-10-31T13:04:39.503Z,4.57
2022-10-31T13:07:20.073Z,10.63
2022-10-31T13:10:04.709Z,6.53
2022-10-31T13:12:37.521Z,4.57
2022-10-31T13:15:22.332Z,7.77
2022-10-31T13:18:04.146Z,5.80
2022-10-31T13:20:52.993Z,4.87
2022-10-31T13:23:54.765Z,8.20
2022-10-31T13:26:49.865Z,5.30
2022-10-31T13:30:16.042Z,4.00
2022-10-31T13:33:14.767Z,4.83
2022-10-31T13:36:17.248Z,8.87
2022-10-31T13:39:47.431Z,9.90
2022-10-31T13:43:21.463Z,4.17
2022-10-31T13:45:53.882Z,7.20
2022-10-31T13:48:43.533Z,6.27
2022-10-31T13:51:12.263Z,4.43
2022-10-31T13:53:58.399Z,5.20
2022-10-31T13:56:36.488Z,6.50
2022-10-31T13:59:14.015Z,6.57
2022-10-31T14:01:52.793Z,6.67
2022-10-31T14:04:55.985Z,7.80
2022-10-31T14:07:26.044Z,5.93
2022-10-31T14:10:21.000Z,5.70
2022-10-31T14:12:50.411Z,5.80
2022-10-31T14:15:28.544Z,8.63
2022-10-31T14:18:06.462Z,5.03
2022-10-31T14:20:44.651Z,6.43
2022-10-31T14:23:31.181Z,5.60
2022-10-31T14:26:31.923Z,4.37
2022-10-31T14:29:17.873Z,6.87
2022-10-31T14:31:56.176Z,7.00
2022-10-31T14:34:35.919Z,4.50
2022-10-31T14:37:42.412Z,7.37
2022-10-31T14:40:52.047Z,8.90
2022-10-31T14:44:24.824Z,6.00
2022-10-31T14:47:40.109Z,11.13
2022-10-31T14:50:50.071Z,5.93
2022-10-31T14:53:42.822Z,6.27
2022-10-31T14:56:12.628Z,12.33
2022-10-31T14:58:48.286Z,5.67
2022-10-31T15:01:34.238Z,8.60
2022-10-31T15:04:29.024Z,8.73
2022-10-31T15:07:37.271Z,9.10
2022-10-31T15:10:23.816Z,7.83
2022-10-31T15:12:51.028Z,12.40
2022-10-31T15:15:27.619Z,20.40
2022-10-31T15:18:01.167Z,14.50
2022-10-31T15:20:42.834Z,18.83
2022-10-31T15:23:30.303Z,32.60
2022-10-31T15:26:06.520Z,11.47
2022-10-31T15:28:33.444Z,8.93
2022-10-31T15:31:03.918Z,9.23
2022-10-31T15:33:48.650Z,9.03
2022-10-31T15:36:29.163Z,10.00
2022-10-31T15:38:58.673Z,10.10
2022-10-31T15:41:53.961Z,10.23
2022-10-31T15:44:42.929Z,11.10
2022-10-31T15:47:25.254Z,12.30
2022-10-31T15:49:56.889Z,12.77
2022-10-31T15:52:48.226Z,5.97
2022-10-31T15:55:22.647Z,8.80
2022-10-31T15:58:01.338Z,11.43
2022-10-31T16:00:39.321Z,11.83
2022-10-31T16:03:30.483Z,10.00
2022-10-31T16:06:04.578Z,9.60
2022-10-31T16:08:31.327Z,11.40
2022-10-31T16:11:08.301Z,7.30
2022-10-31T16:13:42.234Z,12.93
2022-10-31T16:16:35.606Z,20.17
2022-10-31T16:19:14.115Z,11.93
2022-10-31T16:21:42.719Z,12.17
2022-10-31T16:24:30.549Z,10.20
2022-10-31T16:27:18.706Z,16.30
2022-10-31T16:29:48.739Z,14.73
2022-10-31T16:32:59.992Z,10.13
2022-10-31T16:35:39.395Z,11.37
2022-10-31T16:38:10.263Z,16.60
2022-10-31T16:40:40.252Z,9.20
2022-10-31T16:43:20.378Z,31.77
2022-10-31T16:45:53.164Z,13.60
2022-10-31T16:48:24.064Z,13.00
2022-10-31T16:50:54.077Z,12.70
2022-10-31T16:53:21.343Z,14.90
2022-10-31T16:55:59.116Z,9.73
2022-10-31T16:58:33.990Z,13.03
2022-10-31T17:01:05.868Z,10.00
2022-10-31T17:03:33.323Z,14.70
2022-10-31T17:06:00.395Z,15.40
2022-10-31T17:08:27.427Z,35.03
2022-10-31T17:10:59.412Z,33.07
2022-10-31T17:13:32.463Z,13.90
2022-10-31T17:16:03.533Z,55.57
2022-10-31T17:18:30.953Z,23.27
2022-10-31T17:21:05.967Z,16.10
2022-10-31T17:23:33.421Z,11.00
2022-10-31T17:26:00.692Z,15.60
2022-10-31T17:28:27.767Z,14.43
2022-10-31T17:30:59.008Z,21.53
2022-10-31T17:33:26.167Z,13.43
2022-10-31T17:35:53.302Z,19.43
2022-10-31T17:38:20.256Z,15.97
2022-10-31T17:43:15.136Z,18.20
2022-10-31T17:45:42.594Z,18.80
2022-10-31T17:48:14.675Z,17.83
2022-10-31T17:50:41.692Z,15.43
2022-10-31T17:53:08.621Z,25.67
2022-10-31T17:55:37.437Z,25.30
2022-10-31T17:58:05.588Z,28.97
2022-10-31T18:00:33.067Z,25.77
2022-10-31T18:03:03.760Z,22.20
2022-10-31T18:05:31.189Z,20.47
2022-10-31T18:08:02.439Z,19.80
2022-10-31T18:10:30.900Z,19.97
2022-10-31T18:12:57.893Z,26.43
2022-10-31T18:15:24.856Z,26.53
2022-10-31T18:17:51.737Z,27.60
2022-10-31T18:20:18.674Z,29.53
2022-10-31T18:22:45.513Z,31.60
2022-10-31T18:25:12.389Z,35.70
2022-10-31T18:27:39.278Z,39.17
2022-10-31T18:30:07.540Z,27.97
2022-10-31T18:32:36.266Z,25.00
2022-10-31T18:35:03.321Z,15.10
2022-10-31T18:37:30.252Z,17.73
2022-10-31T18:39:57.124Z,22.93
2022-10-31T18:42:24.062Z,20.57
2022-10-31T18:44:50.985Z,20.17
2022-10-31T18:47:19.118Z,16.30
2022-10-31T18:49:46.004Z,17.70
2022-10-31T18:52:12.885Z,20.63
2022-10-31T18:54:39.806Z,22.63
2022-10-31T18:57:06.877Z,18.70
2022-10-31T18:59:33.785Z,16.17
2022-10-31T19:02:00.723Z,25.30
2022-10-31T19:04:27.861Z,21.30
2022-10-31T19:06:55.855Z,21.40
2022-10-31T19:09:24.139Z,21.43
2022-10-31T19:11:51.258Z,21.83
2022-10-31T19:14:18.217Z,21.03
2022-10-31T19:16:45.206Z,28.23
2022-10-31T19:19:12.058Z,29.40
2022-10-31T19:21:38.994Z,20.90
2022-10-31T19:24:06.172Z,22.83
2022-10-31T19:26:34.754Z,20.00
2022-10-31T19:29:01.878Z,20.40
2022-10-31T19:31:29.673Z,24.80
2022-10-31T19:33:56.702Z,28.30
2022-10-31T19:36:24.135Z,23.60
2022-10-31T19:38:53.638Z,30.10
2022-10-31T19:41:28.454Z,22.63
2022-10-31T19:43:58.469Z,21.83
2022-10-31T19:46:48.149Z,18.10
2022-10-31T19:49:12.503Z,22.93
2022-10-31T19:51:39.483Z,24.90
2022-10-31T19:54:07.159Z,23.13
2022-10-31T19:56:34.044Z,23.87
2022-10-31T19:59:02.571Z,22.63
2022-10-31T20:01:29.637Z,16.03
2022-10-31T20:03:56.567Z,22.57
2022-10-31T20:06:31.196Z,30.30
2022-10-31T20:08:59.411Z,44.30
2022-10-31T20:11:28.497Z,35.30
2022-10-31T20:13:59.735Z,28.70
2022-10-31T20:16:29.236Z,24.20
2022-10-31T20:18:56.983Z,18.23
2022-10-31T20:21:28.939Z,16.77
2022-10-31T20:24:03.896Z,22.30
2022-10-31T20:26:33.107Z,29.53
2022-10-31T20:29:02.271Z,23.23
2022-10-31T20:31:34.535Z,24.30
2022-10-31T20:34:02.395Z,19.10
2022-10-31T20:36:30.704Z,21.73
2022-10-31T20:38:58.773Z,18.80
2022-10-31T20:41:26.339Z,29.37
2022-10-31T20:43:53.508Z,18.87
2022-10-31T20:46:25.419Z,40.67
2022-10-31T20:48:54.324Z,59.90
2022-10-31T20:51:28.423Z,31.60
2022-10-31T20:53:58.860Z,32.67
2022-10-31T20:56:28.510Z,22.60
2022-10-31T20:58:57.277Z,23.13
2022-10-31T21:01:30.154Z,26.63
2022-10-31T21:03:58.960Z,19.97
2022-10-31T21:06:26.546Z,19.73
2022-10-31T21:08:54.846Z,24.53
2022-10-31T21:11:27.812Z,20.90
2022-10-31T21:13:55.301Z,20.90
2022-10-31T21:16:28.432Z,21.67
2022-10-31T21:18:55.990Z,20.80
2022-10-31T21:21:32.229Z,21.67
2022-10-31T21:26:52.029Z,26.17
2022-10-31T21:29:21.018Z,18.80
2022-10-31T21:31:48.915Z,16.80
2022-10-31T21:34:16.257Z,19.03
2022-10-31T21:36:43.224Z,22.07
2022-10-31T21:39:10.814Z,19.20
2022-10-31T21:41:37.725Z,18.40
2022-10-31T21:44:05.896Z,18.43
2022-10-31T21:46:34.748Z,16.43
2022-10-31T21:49:03.653Z,20.90
2022-10-31T21:51:35.179Z,19.83
2022-10-31T21:54:21.550Z,17.13
2022-10-31T21:56:49.250Z,24.03
2022-10-31T21:59:16.147Z,17.60
2022-10-31T22:01:43.157Z,17.20
2022-10-31T22:04:10.501Z,19.33
2022-10-31T22:06:38.494Z,16.00
2022-10-31T22:09:10.223Z,24.50
2022-10-31T22:11:37.186Z,17.23
2022-10-31T22:14:05.064Z,20.40
2022-10-31T22:16:36.530Z,23.90
2022-10-31T22:19:06.547Z,22.70
2022-10-31T22:21:48.918Z,23.30
2022-10-31T22:24:18.270Z,25.70
2022-10-31T22:26:45.329Z,19.60
2022-10-31T22:29:18.240Z,18.27
2022-10-31T22:31:55.127Z,17.53
2022-10-31T22:34:25.619Z,12.67
2022-10-31T22:36:56.048Z,17.27
2022-10-31T22:39:23.033Z,22.43
2022-10-31T22:41:49.903Z,19.00
2022-10-31T22:44:16.735Z,25.23
2022-10-31T22:46:43.578Z,21.50
2022-10-31T22:49:15.112Z,21.73
2022-10-31T22:51:44.679Z,19.80
2022-10-31T22:54:18.575Z,24.23
2022-10-31T22:56:46.418Z,19.30
2022-10-31T22:59:16.214Z,24.73
2022-10-31T23:01:47.009Z,21.20
2022-10-31T23:04:16.675Z,18.63
2022-10-31T23:06:44.305Z,22.63
2022-10-31T23:09:16.031Z,21.67
2022-10-31T23:11:43.111Z,19.03
2022-10-31T23:14:19.342Z,19.47
2022-10-31T23:16:55.647Z,20.57
2022-10-31T23:19:30.132Z,22.90
2022-10-31T23:22:03.903Z,20.97
2022-10-31T23:24:47.511Z,24.77
2022-10-31T23:27:16.903Z,21.70
2022-10-31T23:29:57.632Z,21.00
2022-10-31T23:32:36.255Z,21.60
2022-10-31T23:35:10.105Z,22.00
2022-10-31T23:37:39.095Z,24.93
2022-10-31T23:40:08.682Z,24.30
2022-10-31T23:42:35.950Z,18.77
2022-10-31T23:45:03.155Z,21.10
2022-10-31T23:47:30.114Z,21.40
2022-10-31T23:49:56.992Z,24.03
2022-10-31T23:52:23.901Z,19.27
2022-10-31T23:54:50.838Z,25.33
2022-10-31T23:57:18.353Z,26.80
2022-10-31T23:59:45.353Z,17.00
